Time;durP1;ratioP1;P1;durP2;ratioP2;P2;SDS_P1;SDS_P2;PMS_P1;PMS_P2;Temp;Humidity;BMP_temperature;BMP_pressure;BME280_temperature;BME280_humidity;BME280_pressure;Samples;Min_cycle;Max_cycle;Signal;HPM_P1;HPM_P2
2022/08/29 00:00:23;;;;;;;16.17;6.25;;;25.90;67.50;;;;;;5063019;28;20333;-80
2022/08/29 00:02:58;;;;;;;12.38;6.20;;;25.90;67.70;;;;;;5057246;28;20189;-83
2022/08/29 00:05:30;;;;;;;11.88;6.18;;;25.80;67.70;;;;;;5061370;28;20218;-81
2022/08/29 00:08:00;;;;;;;11.65;5.70;;;25.80;67.80;;;;;;5061045;28;20228;-82
2022/08/29 00:10:30;;;;;;;11.93;6.30;;;25.80;68.00;;;;;;5059658;28;20208;-82
2022/08/29 00:12:58;;;;;;;13.93;6.00;;;25.80;68.30;;;;;;5056636;28;20199;-82
2022/08/29 00:15:28;;;;;;;12.98;6.07;;;25.70;68.10;;;;;;5057021;28;20210;-81
2022/08/29 00:17:58;;;;;;;14.45;5.75;;;25.70;68.20;;;;;;5065310;28;20225;-81
2022/08/29 00:20:29;;;;;;;10.63;5.78;;;25.70;68.30;;;;;;5059084;28;20296;-81
2022/08/29 00:23:02;;;;;;;12.73;6.22;;;25.70;68.60;;;;;;5062582;28;20205;-83
2022/08/29 00:25:31;;;;;;;14.63;5.57;;;25.70;68.80;;;;;;5059272;28;20202;-80
2022/08/29 00:28:00;;;;;;;12.60;5.80;;;25.60;68.70;;;;;;5062520;28;20194;-83
2022/08/29 00:30:29;;;;;;;9.98;5.82;;;25.60;68.90;;;;;;5060114;28;20202;-82
2022/08/29 00:32:58;;;;;;;11.52;5.82;;;25.60;68.90;;;;;;5061231;28;20578;-82
2022/08/29 00:35:30;;;;;;;12.68;5.63;;;25.60;69.10;;;;;;5061745;28;20213;-83
2022/08/29 00:37:58;;;;;;;10.00;5.40;;;25.60;69.10;;;;;;5063770;28;20186;-81
2022/08/29 00:40:30;;;;;;;14.85;5.70;;;25.50;69.20;;;;;;5059759;28;20226;-81
2022/08/29 00:42:59;;;;;;;11.95;5.63;;;25.50;69.40;;;;;;5063057;28;20194;-80
2022/08/29 00:45:28;;;;;;;10.05;5.57;;;25.50;69.40;;;;;;5058749;28;21011;-83
2022/08/29 00:48:00;;;;;;;15.05;6.03;;;25.50;69.40;;;;;;5063054;28;20363;-82
2022/08/29 00:50:34;;;;;;;9.73;5.90;;;25.50;69.40;;;;;;5063189;28;20644;-80
2022/08/29 00:53:06;;;;;;;13.95;5.40;;;25.50;69.50;;;;;;5060047;28;20198;-82
2022/08/29 00:55:37;;;;;;;8.20;5.20;;;25.50;69.60;;;;;;5057236;28;20202;-80
2022/08/29 00:58:10;;;;;;;10.35;5.53;;;25.40;69.50;;;;;;5059922;28;20198;-81
2022/08/29 01:00:42;;;;;;;8.88;5.63;;;25.40;69.60;;;;;;5059378;28;20201;-80
2022/08/29 01:03:12;;;;;;;15.13;5.90;;;25.40;69.70;;;;;;5059849;28;20256;-81
2022/08/29 01:05:41;;;;;;;10.63;5.43;;;25.40;69.70;;;;;;5052575;28;20201;-81
2022/08/29 01:08:10;;;;;;;14.82;4.82;;;25.40;69.80;;;;;;5060996;28;20227;-80
2022/08/29 01:13:31;;;;;;;11.85;5.75;;;25.40;70.10;;;;;;5060480;28;20313;-82
2022/08/29 01:16:00;;;;;;;10.52;5.15;;;25.40;70.20;;;;;;5059034;28;20221;-82
2022/08/29 01:18:34;;;;;;;11.43;6.40;;;25.30;70.30;;;;;;5057240;28;20203;-82
2022/08/29 01:21:12;;;;;;;12.65;5.45;;;25.30;70.40;;;;;;5055683;28;20893;-83
2022/08/29 01:23:46;;;;;;;11.05;5.25;;;25.20;70.50;;;;;;5061115;28;20772;-81
2022/08/29 01:26:16;;;;;;;14.05;6.00;;;25.30;70.60;;;;;;5055302;28;20189;-82
2022/08/29 01:28:49;;;;;;;12.02;5.70;;;25.20;70.60;;;;;;5057198;28;20237;-82
2022/08/29 01:31:21;;;;;;;11.80;5.63;;;25.20;70.70;;;;;;5062002;28;20187;-82
2022/08/29 01:34:11;;;;;;;11.07;5.90;;;25.20;70.80;;;;;;5057045;28;20198;-82
2022/08/29 01:36:46;;;;;;;10.43;5.78;;;25.10;70.70;;;;;;5059521;28;20225;-82
2022/08/29 01:39:14;;;;;;;15.73;5.88;;;25.10;70.80;;;;;;5057152;28;20911;-83
2022/08/29 01:41:45;;;;;;;14.07;5.78;;;25.10;70.80;;;;;;5056659;28;20198;-82
2022/08/29 01:44:16;;;;;;;10.90;5.68;;;25.10;71.00;;;;;;5062910;28;20197;-82
2022/08/29 01:46:45;;;;;;;9.77;5.97;;;25.10;71.10;;;;;;5060474;28;20202;-82
2022/08/29 01:49:16;;;;;;;9.27;5.72;;;25.10;71.10;;;;;;5064016;28;20194;-82
2022/08/29 01:51:45;;;;;;;10.68;5.57;;;25.00;71.20;;;;;;5059376;28;20209;-82
2022/08/29 01:54:14;;;;;;;14.50;5.65;;;25.00;71.30;;;;;;5062868;28;20562;-81
2022/08/29 01:56:47;;;;;;;9.82;5.63;;;25.00;71.40;;;;;;5055466;28;20446;-82
2022/08/29 01:59:17;;;;;;;11.07;5.65;;;25.00;73.30;;;;;;5060948;28;20758;-82
2022/08/29 02:01:49;;;;;;;15.52;5.82;;;25.00;72.80;;;;;;5059980;28;20201;-82
2022/08/29 02:04:18;;;;;;;11.07;5.20;;;25.00;72.60;;;;;;5054465;28;20285;-83
2022/08/29 02:06:46;;;;;;;10.40;5.68;;;24.90;72.50;;;;;;5055803;28;20551;-81
2022/08/29 02:09:15;;;;;;;8.50;5.63;;;24.90;72.50;;;;;;5059991;28;20233;-82
2022/08/29 02:11:47;;;;;;;10.88;5.60;;;24.90;72.50;;;;;;5059849;28;20865;-82
2022/08/29 02:14:16;;;;;;;9.35;5.32;;;24.90;72.40;;;;;;5054396;28;20208;-81
2022/08/29 02:16:47;;;;;;;12.20;5.65;;;24.80;72.30;;;;;;5062506;28;20213;-82
2022/08/29 02:19:16;;;;;;;12.45;5.15;;;24.80;72.20;;;;;;5062507;28;20218;-82
2022/08/29 02:21:45;;;;;;;12.85;5.47;;;24.80;72.20;;;;;;5060215;28;20209;-82
2022/08/29 02:24:16;;;;;;;11.23;6.05;;;24.80;72.20;;;;;;5059894;28;20209;-83
2022/08/29 02:26:56;;;;;;;10.15;5.03;;;24.80;72.20;;;;;;5058477;28;20202;-84
2022/08/29 02:29:25;;;;;;;11.00;5.20;;;24.70;72.10;;;;;;5056585;28;20399;-80
2022/08/29 02:32:06;;;;;;;12.82;5.45;;;24.80;72.20;;;;;;5057641;28;20198;-83
2022/08/29 02:34:35;;;;;;;15.57;5.20;;;24.70;72.20;;;;;;5061244;28;20281;-82
2022/08/29 02:37:04;;;;;;;10.27;5.28;;;24.70;72.20;;;;;;5059300;28;20245;-83
2022/08/29 02:39:33;;;;;;;12.18;5.57;;;24.60;72.20;;;;;;5056919;28;20198;-82
2022/08/29 02:42:03;;;;;;;8.10;4.47;;;24.70;72.20;;;;;;5060546;28;20543;-82
2022/08/29 02:44:32;;;;;;;16.88;5.15;;;24.60;72.20;;;;;;5056365;28;20195;-82
2022/08/29 02:47:01;;;;;;;9.63;4.70;;;24.60;72.10;;;;;;5057257;28;20209;-82
2022/08/29 02:49:34;;;;;;;13.85;5.45;;;24.60;72.00;;;;;;5059457;28;20225;-81
2022/08/29 02:52:05;;;;;;;11.38;5.43;;;24.60;72.00;;;;;;5060245;28;20909;-82
2022/08/29 02:54:34;;;;;;;8.70;4.43;;;24.60;72.10;;;;;;5061460;28;20187;-82
2022/08/29 02:57:04;;;;;;;12.80;5.50;;;24.60;72.00;;;;;;5054863;28;20229;-81
2022/08/29 02:59:32;;;;;;;7.07;4.68;;;24.60;72.20;;;;;;5059479;28;20198;-82
2022/08/29 03:02:01;;;;;;;9.52;5.00;;;24.60;72.20;;;;;;5060807;28;20194;-82
2022/08/29 03:04:29;;;;;;;10.50;5.35;;;24.50;72.00;;;;;;5052781;28;20671;-83
2022/08/29 03:06:58;;;;;;;11.18;4.88;;;24.60;72.10;;;;;;5060067;28;20202;-82
2022/08/29 03:09:26;;;;;;;11.48;5.03;;;24.50;72.10;;;;;;5055174;28;20237;-82
2022/08/29 03:11:55;;;;;;;10.82;5.13;;;24.50;72.20;;;;;;5058743;28;20205;-82
2022/08/29 03:14:25;;;;;;;14.90;5.95;;;24.50;72.20;;;;;;5059999;28;20194;-82
2022/08/29 03:16:54;;;;;;;10.38;5.10;;;24.50;72.30;;;;;;5058004;28;20207;-83
2022/08/29 03:19:22;;;;;;;11.43;5.13;;;24.50;72.30;;;;;;5060058;28;20194;-82
2022/08/29 03:21:51;;;;;;;10.25;4.93;;;24.50;72.30;;;;;;5058486;28;20567;-82
2022/08/29 03:24:19;;;;;;;9.68;5.00;;;24.50;72.30;;;;;;5052514;28;20694;-82
2022/08/29 03:26:54;;;;;;;8.93;5.07;;;24.40;72.20;;;;;;5058176;28;20194;-82
2022/08/29 03:29:25;;;;;;;6.90;4.60;;;24.50;72.20;;;;;;5055948;28;20186;-82
2022/08/29 03:31:57;;;;;;;8.35;4.88;;;24.40;72.30;;;;;;5054710;28;20202;-82
2022/08/29 03:34:26;;;;;;;7.88;4.63;;;24.40;72.30;;;;;;5059693;28;20201;-81
2022/08/29 03:36:59;;;;;;;12.35;5.13;;;24.40;72.30;;;;;;5059176;28;20221;-85
2022/08/29 03:39:28;;;;;;;10.35;5.03;;;24.40;72.30;;;;;;5060467;28;20195;-83
2022/08/29 03:41:57;;;;;;;10.50;4.97;;;24.30;72.20;;;;;;5060489;28;20285;-82
2022/08/29 03:44:27;;;;;;;11.43;5.07;;;24.30;72.30;;;;;;5061720;28;20828;-82
2022/08/29 03:46:55;;;;;;;10.32;4.63;;;24.30;72.30;;;;;;5057068;28;20206;-82
2022/08/29 03:49:24;;;;;;;8.27;4.57;;;24.30;72.30;;;;;;5057286;28;20205;-82
2022/08/29 03:51:52;;;;;;;11.52;4.82;;;24.30;72.30;;;;;;5061023;28;20213;-82
2022/08/29 03:54:21;;;;;;;12.88;5.45;;;24.30;72.30;;;;;;5059293;28;20217;-82
2022/08/29 03:56:50;;;;;;;8.32;4.32;;;24.20;72.30;;;;;;5052586;28;20201;-82
2022/08/29 03:59:19;;;;;;;14.18;5.68;;;24.30;72.40;;;;;;5057333;28;20198;-81
2022/08/29 04:01:49;;;;;;;13.15;5.28;;;24.30;72.50;;;;;;5058695;28;20618;-82
2022/08/29 04:07:03;;;;;;;11.10;5.28;;;24.20;72.40;;;;;;5054007;28;20232;-82
2022/08/29 04:09:31;;;;;;;14.57;5.35;;;24.20;72.40;;;;;;5057560;28;20241;-82
2022/08/29 04:11:59;;;;;;;10.60;4.47;;;24.20;72.50;;;;;;5055610;28;20289;-82
2022/08/29 04:14:28;;;;;;;10.20;4.72;;;24.20;72.60;;;;;;5059739;28;20206;-82
2022/08/29 04:16:58;;;;;;;9.23;4.82;;;24.20;72.70;;;;;;5057489;28;20270;-81
2022/08/29 04:19:26;;;;;;;12.00;5.13;;;24.20;72.80;;;;;;5056822;28;20363;-82
2022/08/29 04:21:56;;;;;;;11.65;4.60;;;24.20;72.90;;;;;;5058151;28;20865;-82
2022/08/29 04:24:24;;;;;;;10.23;4.95;;;24.20;73.00;;;;;;5056501;28;20202;-82
2022/08/29 04:26:53;;;;;;;9.63;4.60;;;24.20;73.10;;;;;;5063884;28;20194;-83
2022/08/29 04:29:21;;;;;;;9.07;4.80;;;24.20;73.00;;;;;;5062398;28;20656;-82
2022/08/29 04:31:50;;;;;;;7.60;4.40;;;24.20;73.30;;;;;;5063067;28;20194;-83
2022/08/29 04:34:20;;;;;;;10.45;5.18;;;24.20;73.40;;;;;;5060956;28;20224;-85
2022/08/29 04:36:49;;;;;;;11.85;4.22;;;24.20;73.50;;;;;;5060048;28;20199;-83
2022/08/29 04:39:19;;;;;;;14.52;5.05;;;24.20;73.50;;;;;;5052648;28;20202;-85
2022/08/29 04:41:47;;;;;;;8.88;4.38;;;24.30;73.80;;;;;;5058742;28;20731;-83
2022/08/29 04:44:16;;;;;;;14.80;5.03;;;24.30;73.70;;;;;;5060392;28;20206;-84
2022/08/29 04:46:44;;;;;;;10.65;4.32;;;24.30;73.80;;;;;;5065934;28;20285;-87
2022/08/29 04:49:13;;;;;;;11.00;4.13;;;24.30;73.60;;;;;;5056736;28;20198;-82
2022/08/29 04:51:43;;;;;;;8.02;4.38;;;24.30;73.60;;;;;;5057383;28;20194;-83
2022/08/29 04:54:11;;;;;;;11.45;4.85;;;24.30;73.60;;;;;;5061368;28;20289;-83
2022/08/29 04:56:40;;;;;;;7.10;4.40;;;24.30;73.60;;;;;;5057355;28;20291;-83
2022/08/29 04:59:15;;;;;;;8.60;3.97;;;24.40;73.50;;;;;;5063054;28;20220;-81
2022/08/29 05:01:45;;;;;;;8.77;4.65;;;24.40;73.50;;;;;;5059202;28;20811;-83
2022/08/29 05:04:14;;;;;;;13.63;4.78;;;24.50;73.50;;;;;;5061535;28;20244;-83
2022/08/29 05:06:44;;;;;;;9.50;4.82;;;24.50;73.40;;;;;;5053201;28;20840;-81
2022/08/29 05:09:12;;;;;;;13.30;4.47;;;24.50;73.50;;;;;;5061369;28;20225;-82
2022/08/29 05:11:41;;;;;;;10.57;5.07;;;24.60;73.30;;;;;;5059878;28;20721;-83
2022/08/29 05:14:10;;;;;;;6.57;3.90;;;24.60;73.30;;;;;;5056881;28;20195;-83
2022/08/29 05:16:38;;;;;;;7.53;3.75;;;24.70;73.40;;;;;;5062783;28;20202;-83
2022/08/29 05:19:07;;;;;;;7.05;3.95;;;24.70;73.30;;;;;;5060659;28;20878;-82
2022/08/29 05:21:39;;;;;;;8.27;4.22;;;24.80;73.30;;;;;;5062542;28;20264;-83
2022/08/29 05:24:11;;;;;;;7.88;4.00;;;24.80;73.20;;;;;;5057833;28;20202;-81
2022/08/29 05:26:43;;;;;;;13.57;4.35;;;24.90;73.30;;;;;;5062989;28;20655;-84
2022/08/29 05:29:12;;;;;;;9.85;3.90;;;24.90;73.30;;;;;;5056609;28;20194;-84
2022/08/29 05:31:41;;;;;;;13.85;3.97;;;25.00;73.20;;;;;;5061364;28;20194;-81
2022/08/29 05:34:12;;;;;;;13.70;4.43;;;25.10;73.30;;;;;;5061170;28;20277;-82
2022/08/29 05:37:09;;;;;;;8.77;3.55;;;25.20;74.10;;;;;;5055321;28;20201;-86
2022/08/29 05:39:39;;;;;;;9.35;3.78;;;25.30;73.00;;;;;;5061211;28;20789;-81
2022/08/29 05:42:09;;;;;;;6.22;3.10;;;25.30;72.60;;;;;;5063514;28;20202;-83
2022/08/29 05:44:38;;;;;;;9.90;3.22;;;25.40;72.20;;;;;;5058773;28;20648;-83
2022/08/29 05:47:09;;;;;;;6.10;2.95;;;25.60;72.10;;;;;;5061313;28;20195;-83
2022/08/29 05:49:38;;;;;;;19.67;3.80;;;25.60;71.50;;;;;;5062717;28;20858;-80
2022/08/29 05:52:08;;;;;;;7.38;3.10;;;25.70;71.10;;;;;;5059646;28;20200;-79
2022/08/29 05:54:40;;;;;;;9.65;3.28;;;25.80;70.60;;;;;;5056882;28;20194;-78
2022/08/29 05:57:11;;;;;;;9.20;3.20;;;25.90;70.30;;;;;;5054033;28;20187;-78
2022/08/29 05:59:47;;;;;;;7.35;3.60;;;25.90;70.10;;;;;;5053332;28;20452;-79
2022/08/29 06:02:16;;;;;;;6.57;3.20;;;26.10;69.70;;;;;;5056555;28;20613;-80
2022/08/29 06:04:45;;;;;;;12.95;3.40;;;26.20;69.50;;;;;;5061994;28;20226;-81
2022/08/29 06:07:14;;;;;;;9.57;3.25;;;26.20;69.50;;;;;;5058124;28;20206;-78
2022/08/29 06:09:45;;;;;;;8.25;3.20;;;26.30;69.30;;;;;;5016728;28;20203;-79
2022/08/29 06:12:15;;;;;;;15.57;3.92;;;26.40;69.40;;;;;;5019946;28;20214;-79
2022/08/29 06:14:43;;;;;;;7.55;3.17;;;26.50;69.30;;;;;;5020962;28;20200;-79
2022/08/29 06:17:18;;;;;;;10.90;3.58;;;26.50;69.10;;;;;;5014608;28;20700;-78
2022/08/29 06:19:50;;;;;;;8.10;4.10;;;26.60;69.10;;;;;;5020256;28;20511;-80
2022/08/29 06:22:21;;;;;;;8.20;3.90;;;26.70;69.10;;;;;;5020491;28;20196;-81
2022/08/29 06:24:53;;;;;;;10.93;3.97;;;26.70;68.80;;;;;;5013353;28;20191;-79
2022/08/29 06:27:24;;;;;;;8.98;3.65;;;26.80;68.60;;;;;;5016441;28;20775;-78
2022/08/29 06:29:53;;;;;;;6.30;3.72;;;26.90;68.10;;;;;;5020476;28;20196;-79
2022/08/29 06:32:22;;;;;;;11.43;3.78;;;27.00;68.00;;;;;;5021137;28;20287;-80
2022/08/29 06:34:51;;;;;;;9.00;3.78;;;27.00;67.80;;;;;;5020876;28;20195;-78
2022/08/29 06:37:19;;;;;;;9.55;3.83;;;27.10;67.50;;;;;;5018490;28;20198;-78
2022/08/29 06:39:48;;;;;;;10.77;4.13;;;27.20;67.30;;;;;;5019720;28;20224;-79
2022/08/29 06:42:21;;;;;;;9.65;3.28;;;27.20;67.20;;;;;;5014272;28;20199;-79
2022/08/29 06:44:50;;;;;;;15.57;3.83;;;27.30;66.90;;;;;;5017116;28;20286;-78
2022/08/29 06:47:18;;;;;;;11.98;3.45;;;27.40;66.50;;;;;;5015906;28;20211;-79
2022/08/29 06:49:47;;;;;;;7.88;3.60;;;27.50;66.60;;;;;;5019026;28;20196;-77
2022/08/29 06:52:15;;;;;;;11.52;4.22;;;27.50;66.60;;;;;;5016904;28;20192;-77
2022/08/29 06:54:44;;;;;;;7.00;3.65;;;27.60;66.60;;;;;;5022137;28;20872;-78
2022/08/29 06:57:13;;;;;;;15.00;3.55;;;27.70;66.40;;;;;;5016272;28;20257;-78
2022/08/29 06:59:43;;;;;;;9.40;3.70;;;27.70;66.10;;;;;;5018474;28;20265;-79
2022/08/29 07:02:11;;;;;;;17.63;3.88;;;27.80;66.00;;;;;;5012068;28;20250;-78
2022/08/29 07:04:40;;;;;;;13.25;4.55;;;27.90;65.60;;;;;;5018881;28;20200;-79
2022/08/29 07:07:09;;;;;;;12.98;3.25;;;27.90;65.20;;;;;;5014076;28;20204;-80
2022/08/29 07:09:38;;;;;;;10.00;3.55;;;28.00;65.20;;;;;;5015889;28;20223;-84
2022/08/29 07:12:06;;;;;;;11.48;4.20;;;28.00;64.70;;;;;;5015886;28;20281;-81
2022/08/29 07:14:35;;;;;;;7.65;4.15;;;28.10;64.10;;;;;;5016055;28;20945;-80
2022/08/29 07:17:06;;;;;;;7.22;3.47;;;28.20;64.40;;;;;;5012770;28;20200;-82
2022/08/29 07:19:34;;;;;;;10.45;4.22;;;28.20;64.20;;;;;;5011887;28;20591;-79
2022/08/29 07:22:06;;;;;;;12.15;4.70;;;28.30;64.20;;;;;;5020115;28;20196;-79
2022/08/29 07:24:35;;;;;;;11.02;3.80;;;28.40;63.50;;;;;;5017277;28;20620;-80
2022/08/29 07:27:03;;;;;;;12.05;4.28;;;28.50;63.60;;;;;;5017190;28;20565;-81
2022/08/29 07:29:32;;;;;;;7.15;3.67;;;28.50;63.30;;;;;;5017904;28;20200;-79
2022/08/29 07:32:01;;;;;;;9.70;3.33;;;28.50;63.30;;;;;;5019696;28;20219;-79
2022/08/29 07:34:30;;;;;;;11.07;3.78;;;28.60;63.30;;;;;;5016702;28;20218;-79
2022/08/29 07:36:59;;;;;;;12.05;3.90;;;28.70;62.90;;;;;;5015371;28;20587;-83
2022/08/29 07:39:27;;;;;;;10.70;3.95;;;28.70;62.70;;;;;;5017452;28;20689;-80
2022/08/29 07:41:57;;;;;;;7.78;3.60;;;28.80;62.40;;;;;;5016853;28;20210;-80
2022/08/29 07:44:26;;;;;;;10.82;3.45;;;28.80;62.20;;;;;;5013664;28;20202;-78
2022/08/29 07:47:01;;;;;;;10.15;3.38;;;28.90;61.90;;;;;;5013293;28;20253;-80
2022/08/29 07:49:32;;;;;;;8.77;3.08;;;29.00;61.90;;;;;;5020682;28;20207;-79
2022/08/29 07:52:08;;;;;;;10.23;3.60;;;29.00;61.80;;;;;;5011355;28;20200;-81
2022/08/29 07:54:37;;;;;;;10.10;3.85;;;29.10;61.60;;;;;;5013251;28;20196;-83
2022/08/29 07:57:05;;;;;;;10.57;4.10;;;29.10;61.60;;;;;;5006241;28;20210;-81
2022/08/29 07:59:34;;;;;;;14.10;3.70;;;29.20;61.40;;;;;;5008368;28;20230;-79
2022/08/29 08:02:03;;;;;;;8.75;3.42;;;29.30;61.30;;;;;;5023156;28;20198;-79
2022/08/29 08:04:33;;;;;;;10.68;3.72;;;29.30;61.20;;;;;;5015010;28;20207;-80
2022/08/29 08:07:02;;;;;;;7.28;3.63;;;29.30;61.20;;;;;;5024136;28;20257;-78
2022/08/29 08:09:31;;;;;;;9.60;3.97;;;29.40;60.80;;;;;;5017262;28;20228;-80
2022/08/29 08:12:00;;;;;;;13.43;3.90;;;29.50;60.50;;;;;;5018602;28;20863;-80
2022/08/29 08:14:34;;;;;;;11.23;4.13;;;29.60;60.40;;;;;;5022015;28;20279;-78
2022/08/29 08:17:03;;;;;;;7.25;3.47;;;29.60;60.20;;;;;;5021792;28;20195;-80
2022/08/29 08:19:33;;;;;;;12.80;3.70;;;29.70;60.20;;;;;;5020844;28;20293;-79
2022/08/29 08:22:02;;;;;;;10.13;4.15;;;29.80;60.10;;;;;;5013244;28;20201;-79
2022/08/29 08:24:30;;;;;;;8.27;3.88;;;29.80;59.80;;;;;;5016668;28;20939;-78
2022/08/29 08:26:58;;;;;;;10.68;3.50;;;29.90;59.80;;;;;;5019636;28;20204;-79
2022/08/29 08:29:27;;;;;;;12.23;4.03;;;30.00;59.80;;;;;;5019811;28;20200;-78
2022/08/29 08:31:58;;;;;;;10.52;3.38;;;30.10;59.70;;;;;;5018733;28;20628;-79
2022/08/29 08:34:29;;;;;;;9.60;4.18;;;30.10;59.40;;;;;;5019736;28;20231;-77
2022/08/29 08:36:58;;;;;;;8.93;3.50;;;30.20;59.40;;;;;;5019608;28;20190;-79
2022/08/29 08:39:30;;;;;;;9.23;4.00;;;30.30;59.00;;;;;;5021817;28;20203;-80
2022/08/29 08:42:13;;;;;;;10.02;3.83;;;30.30;58.80;;;;;;5023882;28;20665;-78
2022/08/29 08:45:03;;;;;;;11.88;3.83;;;30.40;58.60;;;;;;5016468;28;20196;-79
2022/08/29 08:47:36;;;;;;;8.35;3.85;;;30.40;58.60;;;;;;5025255;28;20587;-78
2022/08/29 08:50:11;;;;;;;13.32;3.85;;;30.50;58.50;;;;;;5024135;28;20732;-78
2022/08/29 08:52:49;;;;;;;13.05;3.85;;;30.50;58.40;;;;;;5019742;28;20191;-78
2022/08/29 08:55:34;;;;;;;11.77;3.50;;;30.60;58.00;;;;;;5020958;28;20672;-79
2022/08/29 08:58:09;;;;;;;10.60;3.65;;;30.60;57.90;;;;;;5018875;28;20183;-77
2022/08/29 09:00:44;;;;;;;10.23;3.53;;;30.70;58.00;;;;;;5020136;28;20736;-78
2022/08/29 09:03:47;;;;;;;8.15;3.35;;;30.70;57.90;;;;;;5009862;28;20195;-78
2022/08/29 09:06:25;;;;;;;7.88;4.50;;;30.70;57.80;;;;;;5010488;28;20200;-78
2022/08/29 09:09:04;;;;;;;12.23;3.88;;;30.70;57.90;;;;;;5017421;28;20281;-78
2022/08/29 09:11:46;;;;;;;19.20;3.95;;;30.80;57.30;;;;;;5019297;28;20205;-78
2022/08/29 09:14:32;;;;;;;13.40;3.70;;;30.80;57.50;;;;;;5014384;28;20199;-77
2022/08/29 09:17:01;;;;;;;14.23;3.47;;;30.90;57.50;;;;;;5018582;28;20203;-79
2022/08/29 09:19:30;;;;;;;13.38;3.50;;;30.90;57.30;;;;;;5013948;28;20299;-78
2022/08/29 09:22:06;;;;;;;8.25;3.65;;;31.10;57.30;;;;;;5015801;28;20222;-78
2022/08/29 09:24:44;;;;;;;7.53;3.47;;;31.10;56.90;;;;;;5017314;28;20195;-77
2022/08/29 09:27:19;;;;;;;13.80;3.60;;;31.20;56.40;;;;;;5015323;28;20195;-79
2022/08/29 09:29:48;;;;;;;10.65;3.65;;;31.20;56.30;;;;;;5021816;28;20660;-77
2022/08/29 09:32:17;;;;;;;13.07;3.63;;;31.40;56.40;;;;;;5013725;28;20717;-78
2022/08/29 09:34:50;;;;;;;9.18;3.47;;;31.40;56.30;;;;;;5018715;28;20653;-77
2022/08/29 09:37:38;;;;;;;7.38;3.58;;;31.50;56.20;;;;;;5013741;28;20684;-77
2022/08/29 09:40:12;;;;;;;12.98;3.65;;;31.60;56.10;;;;;;5017227;28;20216;-77
2022/08/29 09:42:50;;;;;;;10.55;3.75;;;31.70;55.90;;;;;;5019251;28;20215;-78
2022/08/29 09:45:22;;;;;;;12.27;3.97;;;31.80;55.70;;;;;;5011733;28;20564;-78
2022/08/29 09:48:09;;;;;;;13.80;3.60;;;31.80;55.40;;;;;;5018582;28;20210;-78
2022/08/29 09:50:38;;;;;;;9.82;3.40;;;31.90;55.30;;;;;;5014069;28;20282;-77
2022/08/29 09:53:07;;;;;;;11.38;4.13;;;32.00;55.30;;;;;;5020706;28;20196;-78
2022/08/29 09:55:54;;;;;;;7.97;3.13;;;32.10;55.30;;;;;;5011725;28;20189;-80
2022/08/29 09:58:37;;;;;;;7.63;3.35;;;32.20;55.10;;;;;;5019391;28;20274;-78
2022/08/29 10:01:10;;;;;;;5.88;3.20;;;32.30;54.60;;;;;;5015109;28;20208;-78
2022/08/29 10:03:51;;;;;;;11.80;3.85;;;32.40;54.30;;;;;;5015501;28;20192;-77
2022/08/29 10:06:23;;;;;;;10.65;3.03;;;32.50;53.60;;;;;;5020668;28;20578;-78
2022/08/29 10:09:10;;;;;;;5.80;3.28;;;32.60;52.80;;;;;;5021683;28;20227;-78
2022/08/29 10:11:48;;;;;;;8.68;2.83;;;32.60;52.50;;;;;;5017314;28;20192;-78
2022/08/29 10:14:30;;;;;;;8.85;2.90;;;32.70;51.70;;;;;;5017312;28;20226;-76
2022/08/29 10:19:45;;;;;;;7.10;3.60;;;32.70;51.10;;;;;;5012101;28;20198;-77
2022/08/29 10:22:25;;;;;;;8.90;3.42;;;32.80;50.90;;;;;;5009911;28;20212;-77
2022/08/29 10:25:00;;;;;;;5.78;3.50;;;32.90;50.60;;;;;;5014307;28;20194;-79
2022/08/29 10:27:39;;;;;;;8.00;4.05;;;32.90;49.90;;;;;;5014924;28;20196;-78
2022/08/29 10:30:10;;;;;;;10.57;3.00;;;33.00;50.10;;;;;;5018249;28;20598;-78
2022/08/29 10:33:13;;;;;;;9.32;2.85;;;33.10;49.80;;;;;;5015901;28;20200;-79
2022/08/29 10:35:48;;;;;;;10.50;3.50;;;33.20;49.40;;;;;;5022276;28;20203;-79
2022/08/29 10:38:35;;;;;;;10.95;3.45;;;33.20;49.40;;;;;;5018053;28;20199;-79
2022/08/29 10:41:12;;;;;;;14.07;4.07;;;33.30;49.50;;;;;;5012364;28;20422;-82
2022/08/29 10:43:47;;;;;;;6.45;3.53;;;33.30;49.80;;;;;;5020989;28;20198;-79
2022/08/29 10:46:40;;;;;;;11.23;3.70;;;33.30;50.00;;;;;;5013870;28;21393;-80
2022/08/29 10:49:19;;;;;;;12.82;3.47;;;33.30;50.00;;;;;;5013868;28;20206;-79
2022/08/29 10:51:58;;;;;;;9.32;3.80;;;33.30;50.10;;;;;;5015096;28;20277;-78
2022/08/29 10:54:43;;;;;;;11.55;4.10;;;33.30;49.90;;;;;;5002937;28;20818;-80
2022/08/29 10:57:18;;;;;;;11.90;4.50;;;33.30;49.70;;;;;;5012809;28;20677;-80
2022/08/29 10:59:57;;;;;;;9.20;3.72;;;33.40;49.60;;;;;;5015019;28;20206;-81
2022/08/29 11:02:33;;;;;;;11.13;3.78;;;33.40;49.50;;;;;;5016342;28;20208;-80
2022/08/29 11:05:09;;;;;;;10.32;3.78;;;33.50;49.30;;;;;;5017006;28;20943;-79
2022/08/29 11:07:45;;;;;;;9.38;3.50;;;33.60;49.40;;;;;;5018798;28;20919;-80
2022/08/29 11:10:17;;;;;;;14.73;3.97;;;33.60;48.60;;;;;;5020444;28;20199;-81
2022/08/29 11:12:52;;;;;;;10.10;3.33;;;33.60;48.70;;;;;;5015158;28;20193;-80
2022/08/29 11:15:28;;;;;;;10.63;3.47;;;33.60;48.80;;;;;;5013975;28;20277;-81
2022/08/29 11:18:09;;;;;;;9.07;2.95;;;33.70;49.00;;;;;;5016212;28;20206;-80
2022/08/29 11:20:43;;;;;;;13.27;3.20;;;33.70;48.70;;;;;;5017359;28;20306;-79
2022/08/29 11:23:23;;;;;;;7.10;3.17;;;33.80;48.50;;;;;;5015087;28;20253;-79
2022/08/29 11:25:52;;;;;;;9.48;2.95;;;33.80;49.10;;;;;;5017821;28;20655;-80
2022/08/29 11:28:37;;;;;;;6.95;2.83;;;33.80;47.80;;;;;;5013541;28;20732;-80
2022/08/29 11:31:12;;;;;;;14.48;3.42;;;33.90;47.70;;;;;;5017745;28;20200;-80
2022/08/29 11:33:51;;;;;;;13.50;3.13;;;34.00;47.50;;;;;;5016730;28;20265;-80
2022/08/29 11:36:37;;;;;;;7.70;2.97;;;34.00;47.30;;;;;;5021377;28;20223;-81
2022/08/29 11:39:42;;;;;;;10.93;3.35;;;34.00;46.20;;;;;;5019737;28;20283;-80
2022/08/29 11:42:15;;;;;;;11.90;3.22;;;34.00;45.40;;;;;;5018577;28;20746;-82
2022/08/29 11:45:07;;;;;;;12.10;3.33;;;33.90;45.80;;;;;;5023218;28;20204;-78
2022/08/29 11:47:58;;;;;;;9.50;2.63;;;33.90;46.00;;;;;;5022578;28;20283;-78
2022/08/29 11:50:33;;;;;;;8.00;2.92;;;33.90;46.10;;;;;;5019969;28;20200;-81
2022/08/29 11:53:09;;;;;;;6.10;2.88;;;34.00;46.30;;;;;;5015104;28;20199;-81
2022/08/29 11:55:40;;;;;;;11.70;2.72;;;34.10;46.30;;;;;;5020251;28;20286;-78
2022/08/29 11:58:44;;;;;;;9.15;3.53;;;34.10;45.90;;;;;;5019569;28;20199;-76
2022/08/29 12:02:03;;;;;;;4.93;2.50;;;34.20;45.50;;;;;;5015416;28;20697;-77
2022/08/29 12:04:53;;;;;;;8.20;3.08;;;34.30;45.50;;;;;;4959424;28;20225;-77
2022/08/29 12:07:33;;;;;;;10.73;3.08;;;34.40;44.70;;;;;;5014602;28;20242;-77
2022/08/29 12:10:05;;;;;;;14.65;3.22;;;34.50;43.60;;;;;;5022135;28;20206;-77
2022/08/29 12:12:39;;;;;;;17.67;3.38;;;34.50;43.40;;;;;;5020904;28;20188;-79
2022/08/29 12:15:43;;;;;;;10.75;2.88;;;34.60;43.60;;;;;;5017499;28;20282;-77
2022/08/29 12:18:35;;;;;;;6.30;3.35;;;34.70;44.00;;;;;;4991186;28;21196;-78
2022/08/29 12:21:44;;;;;;;13.70;3.53;;;34.70;43.80;;;;;;5019770;28;20247;-78
2022/08/29 12:24:32;;;;;;;10.90;3.22;;;34.70;43.10;;;;;;5021351;28;20198;-78
2022/08/29 12:27:01;;;;;;;11.65;3.17;;;34.90;43.40;;;;;;5022594;28;20276;-78
2022/08/29 12:29:33;;;;;;;8.20;3.10;;;34.90;43.60;;;;;;5014943;28;20208;-78
2022/08/29 12:32:36;;;;;;;10.13;3.42;;;34.90;43.20;;;;;;5021032;28;20184;-79
2022/08/29 12:35:30;;;;;;;10.88;3.15;;;35.00;42.80;;;;;;5020758;28;20199;-78
2022/08/29 12:38:12;;;;;;;5.78;3.20;;;35.00;43.00;;;;;;5019539;28;20196;-78
2022/08/29 12:41:17;;;;;;;8.90;3.72;;;35.00;42.50;;;;;;5023983;28;20778;-78
2022/08/29 12:43:46;;;;;;;14.82;3.45;;;35.00;42.60;;;;;;5017830;28;20231;-79
2022/08/29 12:46:24;;;;;;;10.05;3.15;;;35.10;42.60;;;;;;5015678;28;20726;-79
2022/08/29 12:48:58;;;;;;;14.00;3.67;;;35.10;42.50;;;;;;5015294;28;20199;-80
2022/08/29 12:51:37;;;;;;;8.63;3.33;;;35.10;42.80;;;;;;5020264;28;20202;-79
2022/08/29 12:54:08;;;;;;;7.95;3.28;;;35.10;43.10;;;;;;5020189;28;20187;-79
2022/08/29 12:56:41;;;;;;;16.63;3.72;;;35.10;42.00;;;;;;5015971;28;20195;-78
2022/08/29 12:59:17;;;;;;;10.52;3.70;;;35.20;41.70;;;;;;5018699;28;20188;-76
2022/08/29 13:01:50;;;;;;;8.90;3.38;;;35.20;41.00;;;;;;5015398;28;20196;-78
2022/08/29 13:04:25;;;;;;;11.85;3.33;;;35.20;40.80;;;;;;5019777;28;20720;-79
2022/08/29 13:07:02;;;;;;;8.45;3.10;;;35.30;40.90;;;;;;5017604;28;20705;-80
2022/08/29 13:09:34;;;;;;;11.23;3.28;;;35.30;41.20;;;;;;4996969;28;20226;-79
2022/08/29 13:12:16;;;;;;;9.20;3.58;;;35.30;41.10;;;;;;5016116;28;20196;-79
2022/08/29 13:14:53;;;;;;;13.52;3.17;;;35.30;41.30;;;;;;5023347;28;20274;-80
2022/08/29 13:17:24;;;;;;;10.25;3.78;;;35.30;41.30;;;;;;5018117;28;20188;-80
2022/08/29 13:20:29;;;;;;;10.23;3.30;;;35.40;41.20;;;;;;5019397;28;20192;-77